Terminal Aerodrome Forecast
Issued by NWS

Home | Current Version | Previous Version | Text Only | Print | Product List | Glossary On
Versions: 1 2 3 4 5 6 7 8 9 10 11 12 13 14 15 16 17 18 19 20
214
FTUS43 KICT 252049 AAB
TAFSLN
TAF AMD
KSLN 252049Z 2521/2618 34014G22KT P6SM VCSH OVC010
     FM260000 36008KT P6SM BKN015
     FM260900 03004KT 5SM BR BKN015
     FM261400 10004KT P6SM BKN025=

USA.gov is the U.S. government's official web portal to all federal, state and local government web resources and services.